Time;durP1;ratioP1;P1;durP2;ratioP2;P2;SDS_P1;SDS_P2;PMS_P1;PMS_P2;Temp;Humidity;BMP_temperature;BMP_pressure;BME280_temperature;BME280_humidity;BME280_pressure;Samples;Min_cycle;Max_cycle;Signal;HPM_P1;HPM_P2
2022/08/23 04:00:16;;;;;;;0.37;0.37;;;17.70;99.90;;;;;;5883652;23;21993;-73
2022/08/23 04:02:43;;;;;;;0.10;0.10;;;17.70;99.90;;;;;;4875374;29;21029;-74
2022/08/23 04:05:11;;;;;;;0.30;0.30;;;17.70;99.90;;;;;;4870887;29;20486;-74
2022/08/23 04:07:38;;;;;;;0.20;0.20;;;17.70;99.90;;;;;;4875407;29;20541;-74
2022/08/23 04:10:08;;;;;;;0.30;0.30;;;17.70;99.90;;;;;;4877209;29;20474;-74
2022/08/23 04:12:35;;;;;;;0.10;0.10;;;17.60;99.90;;;;;;4858676;29;20478;-74
2022/08/23 04:15:02;;;;;;;0.23;0.23;;;17.60;99.90;;;;;;4864144;29;20499;-74
2022/08/23 04:17:30;;;;;;;0.20;0.20;;;17.60;99.90;;;;;;4858114;29;20510;-74
2022/08/23 04:19:56;;;;;;;0.10;0.10;;;17.60;99.90;;;;;;4858522;29;20477;-74
2022/08/23 04:22:23;;;;;;;0.23;0.23;;;17.60;99.90;;;;;;4858535;29;20490;-74
2022/08/23 04:24:50;;;;;;;0.63;0.63;;;17.60;99.90;;;;;;4858618;29;21007;-75
2022/08/23 04:27:17;;;;;;;0.37;0.37;;;17.60;99.90;;;;;;4861528;29;20497;-75
2022/08/23 04:29:44;;;;;;;0.20;0.20;;;17.50;99.90;;;;;;4858203;29;20483;-74
2022/08/23 04:32:11;;;;;;;0.30;0.30;;;17.50;99.90;;;;;;4858361;29;20495;-74
2022/08/23 04:34:41;;;;;;;0.40;0.40;;;17.50;99.90;;;;;;4858073;29;20980;-75
2022/08/23 04:37:08;;;;;;;0.20;0.20;;;17.60;99.90;;;;;;4857849;29;20525;-74
2022/08/23 04:42:16;;;;;;;0.30;0.30;;;17.60;99.90;;;;;;4858153;29;20486;-74
2022/08/23 04:42:22;;;;;;;0.20;0.20;;;17.60;99.90;;;;;;4857948;29;20574;-74
2022/08/23 04:44:49;;;;;;;0.10;0.10;;;17.60;99.90;;;;;;4858813;29;20458;-74
2022/08/23 04:47:17;;;;;;;0.33;0.33;;;17.60;99.90;;;;;;4858608;29;20470;-74
2022/08/23 04:49:45;;;;;;;0.20;0.20;;;17.60;99.90;;;;;;4858144;29;20498;-74
2022/08/23 04:52:13;;;;;;;0.33;0.30;;;17.60;99.90;;;;;;4858038;29;21025;-74
2022/08/23 04:54:40;;;;;;;0.27;0.27;;;17.70;99.90;;;;;;4858360;29;20482;-75
2022/08/23 04:57:07;;;;;;;0.40;0.40;;;17.80;99.90;;;;;;4858669;29;20475;-74
2022/08/23 04:59:34;;;;;;;0.73;0.63;;;17.80;99.90;;;;;;4858587;29;20577;-74
2022/08/23 05:02:01;;;;;;;0.10;0.10;;;17.80;99.90;;;;;;4858958;29;20537;-74
2022/08/23 05:04:28;;;;;;;4.13;0.60;;;17.70;99.90;;;;;;4861906;29;20471;-74
2022/08/23 05:06:56;;;;;;;0.20;0.20;;;17.70;99.90;;;;;;4862287;29;20509;-74
2022/08/23 05:09:23;;;;;;;0.30;0.30;;;17.70;99.90;;;;;;4862095;29;20589;-74
2022/08/23 05:11:50;;;;;;;0.23;0.23;;;17.70;99.90;;;;;;4861715;29;20491;-74
2022/08/23 05:14:17;;;;;;;0.50;0.50;;;17.70;99.90;;;;;;4862120;29;20501;-74
2022/08/23 05:16:44;;;;;;;0.20;0.20;;;17.80;99.90;;;;;;4861864;29;20471;-74
2022/08/23 05:19:11;;;;;;;0.20;0.20;;;17.80;99.90;;;;;;4862205;29;20466;-74
2022/08/23 05:21:37;;;;;;;0.10;0.10;;;17.80;99.90;;;;;;4861803;29;20518;-74
2022/08/23 05:24:06;;;;;;;0.20;0.20;;;17.80;99.90;;;;;;4862168;29;20467;-74
2022/08/23 05:26:32;;;;;;;0.30;0.30;;;17.80;99.90;;;;;;4861963;29;20476;-73
2022/08/23 05:28:59;;;;;;;0.30;0.30;;;17.80;99.90;;;;;;4861868;29;20498;-74
2022/08/23 05:31:28;;;;;;;0.20;0.20;;;17.90;99.90;;;;;;4861475;29;20495;-74
2022/08/23 05:33:55;;;;;;;0.20;0.20;;;17.90;99.90;;;;;;4861080;29;20567;-74
2022/08/23 05:36:21;;;;;;;0.20;0.20;;;17.90;99.90;;;;;;4861576;29;20471;-77
2022/08/23 05:38:51;;;;;;;0.20;0.20;;;17.90;99.90;;;;;;4860760;29;20488;-73
2022/08/23 05:41:20;;;;;;;0.17;0.17;;;17.90;99.90;;;;;;4861171;29;20497;-73
2022/08/23 05:43:47;;;;;;;0.20;0.20;;;18.00;99.90;;;;;;4861022;29;20471;-73
2022/08/23 05:46:17;;;;;;;0.17;0.17;;;18.10;99.90;;;;;;4860541;29;20482;-73
2022/08/23 05:48:46;;;;;;;0.30;0.30;;;18.10;99.90;;;;;;4857036;29;20480;-73
2022/08/23 05:51:16;;;;;;;0.40;0.40;;;18.20;99.90;;;;;;4861086;29;20538;-73
2022/08/23 05:53:44;;;;;;;0.23;0.23;;;18.20;99.90;;;;;;4860832;29;20557;-76
2022/08/23 05:56:13;;;;;;;0.30;0.30;;;18.30;99.90;;;;;;4861793;29;20495;-76
2022/08/23 05:58:41;;;;;;;0.20;0.20;;;18.40;99.90;;;;;;4860863;29;20929;-74
2022/08/23 06:01:09;;;;;;;0.20;0.20;;;18.40;99.90;;;;;;4860833;29;20499;-73
2022/08/23 06:03:36;;;;;;;0.30;0.30;;;18.50;99.90;;;;;;4860798;29;20949;-73
2022/08/23 06:06:03;;;;;;;0.20;0.20;;;18.50;99.90;;;;;;4860980;29;20476;-73
2022/08/23 06:08:30;;;;;;;0.10;0.10;;;18.60;99.90;;;;;;4862774;29;20477;-73
2022/08/23 06:11:02;;;;;;;0.20;0.20;;;18.70;99.90;;;;;;4860772;29;20500;-75
2022/08/23 06:13:29;;;;;;;0.10;0.10;;;18.80;99.90;;;;;;4860237;29;20597;-74
2022/08/23 06:15:58;;;;;;;0.23;0.23;;;18.90;99.90;;;;;;4860788;29;20864;-74
2022/08/23 06:18:26;;;;;;;0.30;0.30;;;19.40;99.90;;;;;;4860711;29;20473;-73
2022/08/23 06:21:01;;;;;;;0.20;0.20;;;20.30;99.90;;;;;;4861123;29;20583;-73
2022/08/23 06:23:28;;;;;;;0.53;0.53;;;21.30;99.90;;;;;;4861225;29;20520;-72
2022/08/23 06:25:55;;;;;;;0.30;0.30;;;21.90;99.90;;;;;;4861331;29;20491;-72
2022/08/23 06:28:22;;;;;;;0.40;0.40;;;22.40;99.90;;;;;;4861018;29;20570;-72
2022/08/23 06:30:49;;;;;;;0.97;0.50;;;22.40;99.90;;;;;;4862063;29;20572;-73
2022/08/23 06:33:18;;;;;;;0.50;0.50;;;22.30;99.90;;;;;;4860603;29;21001;-72
2022/08/23 06:35:44;;;;;;;0.40;0.40;;;22.50;99.90;;;;;;4861383;29;20990;-72
2022/08/23 06:38:11;;;;;;;0.43;0.43;;;22.40;99.90;;;;;;4860387;29;20461;-72
2022/08/23 06:40:38;;;;;;;0.60;0.60;;;22.40;99.90;;;;;;4860911;29;20492;-72
2022/08/23 06:43:05;;;;;;;0.40;0.40;;;22.40;99.90;;;;;;4860397;29;20830;-72
2022/08/23 06:45:32;;;;;;;0.30;0.30;;;22.30;99.90;;;;;;4861258;29;20965;-72
2022/08/23 06:47:59;;;;;;;0.20;0.20;;;22.10;99.90;;;;;;4860078;29;20472;-72
2022/08/23 06:50:27;;;;;;;0.53;0.53;;;21.80;99.90;;;;;;4860199;29;20958;-72
2022/08/23 06:52:54;;;;;;;0.33;0.33;;;21.70;99.90;;;;;;4860113;29;20472;-73
2022/08/23 06:55:21;;;;;;;0.43;0.30;;;21.60;99.90;;;;;;4860359;29;20497;-72
2022/08/23 06:57:47;;;;;;;0.30;0.30;;;21.60;99.90;;;;;;4858573;29;20842;-72
2022/08/23 07:00:15;;;;;;;0.30;0.30;;;21.50;99.90;;;;;;4863049;29;20980;-72
2022/08/23 07:02:41;;;;;;;0.50;0.50;;;21.40;99.90;;;;;;4855674;29;20482;-72
2022/08/23 07:05:09;;;;;;;0.33;0.33;;;21.30;99.90;;;;;;4855992;29;20475;-72
2022/08/23 07:07:37;;;;;;;0.20;0.20;;;21.20;99.90;;;;;;4858318;29;20484;-72
2022/08/23 07:10:05;;;;;;;0.20;0.20;;;21.20;99.90;;;;;;4857769;29;20478;-72
2022/08/23 07:12:32;;;;;;;0.20;0.20;;;21.30;99.90;;;;;;4857881;29;20495;-72
2022/08/23 07:14:59;;;;;;;0.20;0.20;;;21.30;99.90;;;;;;4851846;29;20490;-73
2022/08/23 07:17:26;;;;;;;0.30;0.30;;;21.40;99.90;;;;;;4856599;29;20490;-71
2022/08/23 07:19:52;;;;;;;0.20;0.20;;;21.30;99.90;;;;;;4857497;29;20474;-72
2022/08/23 07:22:19;;;;;;;0.20;0.20;;;21.30;99.90;;;;;;4858950;29;20505;-73
2022/08/23 07:24:47;;;;;;;0.20;0.20;;;21.40;99.90;;;;;;4857320;29;20533;-71
2022/08/23 07:27:14;;;;;;;0.40;0.40;;;21.40;99.90;;;;;;4858498;29;20466;-72
2022/08/23 07:29:41;;;;;;;0.30;0.30;;;21.40;99.90;;;;;;4857033;29;20485;-72
2022/08/23 07:32:08;;;;;;;0.30;0.30;;;21.50;99.90;;;;;;4858797;29;20495;-71
2022/08/23 07:34:36;;;;;;;0.20;0.20;;;21.60;99.90;;;;;;4856540;29;20481;-71
2022/08/23 07:37:04;;;;;;;0.50;0.50;;;21.60;99.90;;;;;;4858328;29;20474;-71
2022/08/23 07:39:31;;;;;;;0.10;0.10;;;21.60;99.90;;;;;;4857589;29;20651;-72
2022/08/23 07:42:00;;;;;;;0.40;0.40;;;21.50;99.90;;;;;;4857126;29;20507;-72
2022/08/23 07:44:27;;;;;;;0.17;0.17;;;21.60;99.90;;;;;;4857698;29;20481;-73
2022/08/23 07:46:55;;;;;;;0.20;0.20;;;21.60;99.90;;;;;;4855748;29;20486;-73
2022/08/23 07:49:22;;;;;;;0.20;0.20;;;21.70;99.90;;;;;;4857791;29;20482;-73
2022/08/23 07:51:51;;;;;;;0.20;0.20;;;21.70;99.90;;;;;;4857697;29;20493;-72
2022/08/23 07:54:20;;;;;;;0.30;0.20;;;21.80;99.90;;;;;;4858238;29;20479;-75
2022/08/23 07:56:47;;;;;;;0.57;0.30;;;21.80;99.90;;;;;;4857555;29;20497;-72
2022/08/23 07:59:15;;;;;;;0.20;0.20;;;21.80;99.90;;;;;;4858317;29;20485;-73
2022/08/23 08:01:43;;;;;;;0.30;0.30;;;21.90;99.90;;;;;;4856924;29;21379;-72
2022/08/23 08:04:11;;;;;;;0.20;0.20;;;21.90;99.90;;;;;;4856698;29;20474;-73
2022/08/23 08:06:40;;;;;;;0.20;0.20;;;22.00;99.90;;;;;;4858556;29;20555;-75
2022/08/23 08:09:08;;;;;;;0.20;0.20;;;22.00;99.90;;;;;;4856950;29;20481;-74
2022/08/23 08:11:35;;;;;;;0.20;0.20;;;22.20;99.90;;;;;;4858051;29;20525;-71
2022/08/23 08:14:04;;;;;;;0.43;0.30;;;22.30;99.90;;;;;;4855581;29;20474;-72
2022/08/23 08:16:34;;;;;;;0.20;0.20;;;22.40;99.90;;;;;;4857676;29;20491;-72
2022/08/23 08:19:05;;;;;;;0.70;0.20;;;22.40;99.90;;;;;;4854661;29;20479;-72
2022/08/23 08:21:32;;;;;;;2.80;0.50;;;22.50;99.90;;;;;;4856093;29;20502;-72
2022/08/23 08:24:00;;;;;;;0.20;0.20;;;22.60;99.90;;;;;;4853556;29;20536;-72
2022/08/23 08:26:27;;;;;;;0.17;0.17;;;22.70;99.90;;;;;;4857744;29;20471;-72
2022/08/23 08:28:55;;;;;;;0.30;0.30;;;22.80;99.90;;;;;;4858279;29;20473;-72
2022/08/23 08:31:22;;;;;;;0.20;0.20;;;22.90;99.90;;;;;;4859239;29;20897;-72
2022/08/23 08:33:50;;;;;;;0.50;0.50;;;22.90;99.90;;;;;;4859646;29;20471;-73
2022/08/23 08:36:33;;;;;;;0.30;0.30;;;22.90;99.90;;;;;;4857745;29;20502;-73
2022/08/23 08:39:01;;;;;;;0.17;0.17;;;22.90;99.90;;;;;;4864381;29;20554;-77
2022/08/23 08:41:47;;;;;;;0.20;0.20;;;23.00;99.90;;;;;;4863639;29;20863;-75
2022/08/23 08:44:30;;;;;;;0.20;0.20;;;23.10;99.90;;;;;;4863399;29;20581;-73
2022/08/23 08:46:57;;;;;;;0.20;0.20;;;23.10;99.90;;;;;;4866271;29;20475;-72
2022/08/23 08:49:35;;;;;;;0.10;0.10;;;23.20;99.90;;;;;;4870161;29;20582;-72
2022/08/23 08:52:11;;;;;;;0.20;0.20;;;23.30;99.90;;;;;;4865780;29;20495;-73
2022/08/23 08:54:40;;;;;;;0.20;0.20;;;23.30;99.90;;;;;;4864733;29;20490;-75
2022/08/23 08:57:08;;;;;;;0.30;0.30;;;23.30;99.90;;;;;;4863234;29;20502;-74
2022/08/23 08:59:44;;;;;;;0.57;0.23;;;23.30;99.90;;;;;;4864090;29;20484;-73
2022/08/23 09:02:17;;;;;;;0.20;0.20;;;23.40;99.90;;;;;;4863626;29;20594;-73
2022/08/23 09:04:45;;;;;;;0.23;0.23;;;23.30;99.90;;;;;;4864144;29;20989;-73
2022/08/23 09:07:17;;;;;;;0.30;0.30;;;23.40;99.90;;;;;;4857729;29;20567;-71
2022/08/23 09:10:12;;;;;;;0.30;0.30;;;23.50;99.90;;;;;;4864301;29;20479;-71
2022/08/23 09:12:48;;;;;;;0.40;0.27;;;23.60;99.90;;;;;;4862812;29;20476;-72
2022/08/23 09:15:25;;;;;;;0.20;0.20;;;23.70;99.90;;;;;;4864862;29;20533;-71
2022/08/23 09:17:54;;;;;;;0.20;0.20;;;23.70;99.90;;;;;;4863161;29;20478;-72
2022/08/23 09:20:24;;;;;;;0.50;0.20;;;23.80;99.90;;;;;;4864498;29;20589;-72
2022/08/23 09:22:56;;;;;;;0.23;0.23;;;23.90;99.90;;;;;;4852170;29;20989;-72
2022/08/23 09:25:24;;;;;;;0.20;0.20;;;23.90;99.90;;;;;;4861856;29;20566;-72
2022/08/23 09:27:51;;;;;;;0.20;0.20;;;23.80;99.90;;;;;;4863332;29;20472;-72
2022/08/23 09:30:19;;;;;;;0.20;0.20;;;23.80;99.90;;;;;;4860903;29;20472;-72
2022/08/23 09:32:49;;;;;;;0.20;0.20;;;23.90;99.90;;;;;;4861614;29;20474;-72
2022/08/23 09:35:18;;;;;;;0.20;0.20;;;23.90;99.90;;;;;;4862433;29;20476;-71
2022/08/23 09:37:58;;;;;;;0.70;0.37;;;23.90;99.90;;;;;;4863728;29;20469;-72
2022/08/23 09:40:36;;;;;;;0.20;0.20;;;24.00;99.90;;;;;;4861379;29;20480;-72
2022/08/23 09:43:08;;;;;;;0.10;0.10;;;24.10;99.90;;;;;;4862610;29;20479;-73
2022/08/23 09:45:37;;;;;;;0.30;0.30;;;24.30;99.90;;;;;;4861195;29;20476;-72
2022/08/23 09:48:04;;;;;;;0.30;0.30;;;24.30;99.90;;;;;;4862551;29;20965;-73
2022/08/23 09:50:37;;;;;;;0.20;0.20;;;24.50;99.90;;;;;;4858222;29;21352;-72
2022/08/23 09:53:09;;;;;;;0.30;0.30;;;24.50;99.90;;;;;;4860989;29;20475;-73
2022/08/23 09:55:39;;;;;;;0.27;0.27;;;24.50;99.90;;;;;;4860768;29;20500;-72
2022/08/23 09:58:16;;;;;;;0.33;0.30;;;24.60;99.90;;;;;;4860404;29;20482;-73
2022/08/23 10:00:43;;;;;;;0.10;0.10;;;24.60;99.90;;;;;;4859345;29;21057;-72
2022/08/23 10:03:22;;;;;;;0.20;0.20;;;24.70;99.90;;;;;;4860823;29;20942;-72
2022/08/23 10:05:51;;;;;;;0.20;0.20;;;24.70;99.90;;;;;;4855417;29;20512;-72
2022/08/23 10:08:26;;;;;;;0.40;0.40;;;24.70;99.90;;;;;;4860588;29;20478;-72
2022/08/23 10:10:58;;;;;;;0.50;0.50;;;24.80;99.90;;;;;;4856385;29;20527;-72
2022/08/23 10:13:25;;;;;;;0.20;0.20;;;24.80;99.90;;;;;;4870774;29;20491;-72
2022/08/23 10:16:01;;;;;;;0.40;0.40;;;24.80;99.90;;;;;;4862728;29;20579;-72
2022/08/23 10:18:53;;;;;;;0.20;0.20;;;24.90;99.90;;;;;;4860963;29;20493;-72
2022/08/23 10:21:28;;;;;;;0.83;0.20;;;24.80;99.90;;;;;;4862532;29;21021;-72
2022/08/23 10:24:15;;;;;;;0.20;0.20;;;24.90;99.90;;;;;;4852086;29;20472;-72
2022/08/23 10:26:52;;;;;;;0.50;0.50;;;25.00;99.90;;;;;;4856536;29;20473;-71
2022/08/23 10:29:37;;;;;;;0.20;0.20;;;25.00;99.90;;;;;;4860874;29;20469;-71
2022/08/23 10:32:20;;;;;;;0.27;0.27;;;24.80;99.90;;;;;;4860096;29;20555;-70
2022/08/23 10:34:58;;;;;;;0.20;0.20;;;25.00;99.90;;;;;;4858410;29;20498;-71
2022/08/23 10:37:39;;;;;;;0.30;0.30;;;25.10;99.90;;;;;;4859069;29;20596;-70
2022/08/23 10:40:13;;;;;;;0.60;0.27;;;25.00;99.90;;;;;;4866146;29;20465;-71
2022/08/23 10:42:49;;;;;;;0.20;0.20;;;25.20;99.90;;;;;;4859279;29;20472;-72
2022/08/23 10:45:24;;;;;;;0.33;0.33;;;25.30;99.90;;;;;;4856065;29;20477;-71
2022/08/23 10:48:04;;;;;;;0.20;0.20;;;25.30;99.40;;;;;;4858973;29;20851;-71
2022/08/23 10:50:42;;;;;;;0.20;0.20;;;25.50;99.20;;;;;;4860378;29;20798;-71
2022/08/23 10:53:13;;;;;;;0.20;0.20;;;25.60;98.80;;;;;;4853379;29;20977;-71
2022/08/23 10:56:01;;;;;;;0.30;0.20;;;25.60;98.70;;;;;;4856458;29;20827;-71
2022/08/23 10:58:33;;;;;;;0.27;0.27;;;25.60;99.40;;;;;;4855954;29;20488;-71
2022/08/23 11:01:01;;;;;;;0.20;0.20;;;25.60;99.60;;;;;;4858316;29;20524;-71
2022/08/23 11:03:31;;;;;;;0.20;0.20;;;25.60;98.00;;;;;;4858033;29;20556;-71
2022/08/23 11:06:40;;;;;;;0.20;0.20;;;25.80;98.40;;;;;;4857513;29;20466;-71
2022/08/23 11:09:09;;;;;;;0.20;0.20;;;25.80;98.60;;;;;;4840589;29;20472;-71
2022/08/23 11:11:48;;;;;;;0.13;0.13;;;25.80;98.70;;;;;;4859670;29;20596;-71
2022/08/23 11:14:28;;;;;;;0.20;0.20;;;25.90;98.40;;;;;;4858983;29;20557;-71
2022/08/23 11:16:59;;;;;;;0.10;0.10;;;26.00;97.10;;;;;;4859453;29;20490;-70
2022/08/23 11:19:49;;;;;;;0.20;0.20;;;26.10;96.60;;;;;;4861191;29;20473;-71
2022/08/23 11:22:18;;;;;;;0.10;0.10;;;26.00;95.50;;;;;;4855470;29;20494;-71
2022/08/23 11:24:54;;;;;;;0.20;0.20;;;26.00;94.90;;;;;;4858930;29;20469;-71
2022/08/23 11:27:40;;;;;;;0.30;0.20;;;26.00;95.80;;;;;;4850971;29;20473;-71
2022/08/23 11:30:43;;;;;;;0.30;0.30;;;26.00;95.90;;;;;;4860025;29;20461;-71
2022/08/23 11:33:16;;;;;;;0.20;0.20;;;25.90;95.90;;;;;;4857340;29;20915;-71
2022/08/23 11:35:45;;;;;;;0.20;0.20;;;26.10;95.90;;;;;;4853805;29;20492;-70
2022/08/23 11:38:13;;;;;;;0.30;0.20;;;26.20;96.00;;;;;;4853658;29;20483;-71
2022/08/23 11:41:11;;;;;;;0.20;0.20;;;26.20;95.70;;;;;;4852385;29;20516;-72
2022/08/23 11:43:41;;;;;;;0.20;0.20;;;26.30;95.70;;;;;;4857367;29;20462;-72
2022/08/23 11:46:25;;;;;;;0.20;0.20;;;26.30;95.00;;;;;;4853311;29;20529;-72
2022/08/23 11:48:59;;;;;;;0.20;0.20;;;26.40;94.70;;;;;;4866365;29;20475;-72
2022/08/23 11:51:35;;;;;;;0.20;0.20;;;26.40;94.30;;;;;;4857358;29;20492;-72
2022/08/23 11:54:34;;;;;;;0.23;0.23;;;26.40;93.80;;;;;;4856314;29;20833;-72
2022/08/23 11:57:14;;;;;;;0.20;0.20;;;26.50;93.50;;;;;;4854621;29;20501;-72
2022/08/23 12:00:04;;;;;;;0.20;0.20;;;26.50;92.30;;;;;;4852226;29;20505;-71
2022/08/23 12:03:00;;;;;;;0.20;0.20;;;26.60;92.40;;;;;;4855262;29;20506;-71
2022/08/23 12:05:41;;;;;;;0.20;0.20;;;26.50;92.90;;;;;;4852806;29;20473;-71
2022/08/23 12:08:45;;;;;;;0.30;0.30;;;26.50;94.00;;;;;;4853615;29;20505;-71
2022/08/23 12:11:14;;;;;;;0.20;0.20;;;26.50;93.40;;;;;;4854106;29;20610;-72
2022/08/23 12:13:59;;;;;;;0.20;0.20;;;26.50;93.80;;;;;;4854640;29;20951;-72
2022/08/23 12:16:39;;;;;;;0.30;0.30;;;26.60;93.80;;;;;;4856445;29;20572;-72
2022/08/23 12:19:10;;;;;;;0.40;0.40;;;26.60;93.50;;;;;;4857807;29;20474;-72
2022/08/23 12:21:49;;;;;;;0.20;0.20;;;26.80;93.40;;;;;;4847717;29;20521;-72
2022/08/23 12:24:25;;;;;;;0.20;0.20;;;26.60;93.40;;;;;;4846184;29;20504;-72
2022/08/23 12:27:08;;;;;;;0.20;0.20;;;26.60;93.50;;;;;;4857662;29;20943;-72
2022/08/23 12:29:46;;;;;;;0.20;0.20;;;26.70;93.20;;;;;;4853750;29;20491;-71
2022/08/23 12:32:19;;;;;;;0.20;0.20;;;26.70;93.40;;;;;;4852075;29;21033;-72
2022/08/23 12:34:59;;;;;;;0.30;0.30;;;26.90;93.40;;;;;;4856314;29;20819;-72
2022/08/23 12:37:35;;;;;;;0.27;0.27;;;27.00;92.80;;;;;;4857632;29;20486;-72
2022/08/23 12:40:06;;;;;;;0.20;0.20;;;27.00;92.20;;;;;;4856645;29;20472;-72
2022/08/23 12:42:36;;;;;;;0.20;0.20;;;26.90;92.50;;;;;;4857653;29;20541;-72
2022/08/23 12:45:08;;;;;;;0.40;0.27;;;26.70;92.50;;;;;;4855065;29;20477;-72
2022/08/23 12:47:36;;;;;;;0.40;0.40;;;26.60;92.80;;;;;;4855706;29;20489;-72
2022/08/23 12:50:09;;;;;;;0.40;0.40;;;26.70;92.00;;;;;;4856367;29;20656;-71
2022/08/23 12:52:37;;;;;;;0.30;0.30;;;26.80;92.00;;;;;;4856140;29;20500;-71
2022/08/23 12:55:14;;;;;;;0.10;0.10;;;26.80;92.80;;;;;;4858353;29;20473;-71
2022/08/23 12:57:43;;;;;;;0.30;0.30;;;27.00;92.60;;;;;;4853201;29;20497;-71
2022/08/23 13:00:22;;;;;;;0.20;0.20;;;27.30;92.00;;;;;;4857880;29;20544;-71
2022/08/23 13:02:56;;;;;;;0.30;0.30;;;27.40;91.00;;;;;;4854600;29;20469;-71
2022/08/23 13:05:33;;;;;;;0.40;0.20;;;27.40;91.40;;;;;;4858474;29;20477;-71
2022/08/23 13:08:02;;;;;;;0.30;0.30;;;27.20;91.50;;;;;;4857386;29;20477;-71
2022/08/23 13:10:29;;;;;;;0.20;0.20;;;27.10;91.30;;;;;;4857974;29;20477;-71
2022/08/23 13:12:56;;;;;;;0.30;0.30;;;27.20;91.60;;;;;;4852012;29;20470;-71
2022/08/23 13:15:46;;;;;;;0.40;0.40;;;27.30;91.40;;;;;;4856991;29;20493;-71
2022/08/23 13:18:26;;;;;;;0.20;0.20;;;27.40;91.10;;;;;;4855837;29;20498;-71
2022/08/23 13:23:28;;;;;;;0.20;0.20;;;27.30;90.40;;;;;;4912979;23;20504;-74
2022/08/23 13:25:55;;;;;;;0.10;0.10;;;27.20;90.60;;;;;;4894905;29;20215;-74
2022/08/23 13:28:24;;;;;;;0.20;0.20;;;27.30;90.90;;;;;;4896192;29;20475;-74
2022/08/23 13:30:59;;;;;;;0.20;0.20;;;27.40;91.00;;;;;;4898370;29;20618;-74
2022/08/23 13:33:27;;;;;;;0.20;0.20;;;27.40;91.30;;;;;;4879241;29;20828;-74
2022/08/23 13:36:09;;;;;;;0.20;0.20;;;27.50;91.30;;;;;;4879539;29;20496;-74
2022/08/23 13:38:36;;;;;;;0.20;0.20;;;27.50;91.30;;;;;;4879561;29;20488;-74
2022/08/23 13:41:05;;;;;;;0.20;0.20;;;27.50;91.20;;;;;;4879162;29;20485;-75
2022/08/23 13:43:36;;;;;;;0.20;0.20;;;27.70;90.60;;;;;;4878489;29;20477;-75
2022/08/23 13:46:14;;;;;;;0.20;0.20;;;27.70;90.20;;;;;;4872646;29;20484;-73
2022/08/23 13:48:49;;;;;;;0.30;0.30;;;27.60;90.80;;;;;;4869579;29;20484;-73
2022/08/23 13:51:29;;;;;;;0.20;0.20;;;27.40;90.40;;;;;;4879338;29;20502;-73
2022/08/23 13:53:57;;;;;;;0.40;0.40;;;27.30;90.80;;;;;;4877330;29;20476;-74
2022/08/23 13:56:25;;;;;;;0.20;0.20;;;27.40;90.60;;;;;;4878145;29;20822;-74
2022/08/23 13:58:58;;;;;;;0.20;0.20;;;27.50;90.20;;;;;;4877112;29;20476;-73
2022/08/23 14:01:26;;;;;;;0.20;0.20;;;27.50;90.70;;;;;;4878302;29;20622;-72
2022/08/23 14:05:23;;;;;;;0.40;0.40;;;27.60;91.20;;;;;;5083764;27;20601;-74
2022/08/23 14:07:51;;;;;;;0.20;0.20;;;27.80;88.80;;;;;;5078495;28;20524;-73
2022/08/23 14:10:20;;;;;;;0.20;0.20;;;27.80;89.40;;;;;;5086788;28;20508;-73
2022/08/23 14:12:48;;;;;;;0.40;0.30;;;27.60;88.40;;;;;;5084568;28;20990;-73
2022/08/23 14:15:16;;;;;;;0.20;0.20;;;27.60;88.20;;;;;;5083930;28;20521;-74
2022/08/23 14:17:46;;;;;;;0.20;0.20;;;27.50;88.40;;;;;;5087565;28;20455;-74
2022/08/23 14:20:15;;;;;;;0.27;0.27;;;27.60;88.40;;;;;;5082177;28;20465;-74
2022/08/23 14:22:43;;;;;;;0.20;0.20;;;27.60;87.20;;;;;;5080677;28;20477;-74
2022/08/23 14:25:12;;;;;;;0.40;0.40;;;27.80;88.40;;;;;;5078802;28;20484;-73
2022/08/23 14:27:40;;;;;;;0.30;0.30;;;27.80;88.30;;;;;;5087059;28;20464;-73
2022/08/23 14:30:10;;;;;;;0.20;0.20;;;27.80;87.20;;;;;;5086851;28;20976;-73
2022/08/23 14:32:37;;;;;;;0.20;0.20;;;27.80;86.40;;;;;;5087070;28;20556;-74
2022/08/23 14:35:05;;;;;;;0.20;0.20;;;27.80;86.70;;;;;;5086550;28;20455;-73
2022/08/23 14:37:31;;;;;;;1.13;0.20;;;27.90;85.80;;;;;;5078459;28;20478;-74
2022/08/23 14:40:00;;;;;;;0.20;0.20;;;27.90;85.50;;;;;;5080702;28;20483;-75
2022/08/23 14:42:26;;;;;;;0.40;0.20;;;27.90;84.90;;;;;;5086094;28;20573;-75
2022/08/23 14:44:53;;;;;;;0.20;0.20;;;27.80;85.80;;;;;;5087743;28;20490;-74
2022/08/23 14:47:20;;;;;;;0.30;0.20;;;27.80;86.20;;;;;;5085988;28;20520;-74
2022/08/23 14:49:47;;;;;;;0.83;0.30;;;27.80;85.50;;;;;;5088434;28;20473;-74
2022/08/23 14:52:14;;;;;;;0.30;0.30;;;27.80;84.50;;;;;;5086944;28;20483;-75
2022/08/23 14:54:41;;;;;;;0.40;0.40;;;27.80;85.70;;;;;;5072117;28;20465;-75
2022/08/23 14:57:10;;;;;;;0.20;0.20;;;27.80;86.10;;;;;;5086959;28;20585;-73
2022/08/23 14:59:36;;;;;;;0.23;0.23;;;27.90;85.40;;;;;;5087869;28;20459;-74
2022/08/23 15:02:04;;;;;;;0.20;0.20;;;28.00;86.10;;;;;;5085782;28;20498;-75
2022/08/23 15:04:31;;;;;;;0.27;0.27;;;27.90;86.10;;;;;;5085738;28;20939;-74
2022/08/23 15:06:58;;;;;;;0.20;0.20;;;27.90;85.20;;;;;;5086386;28;20474;-73
2022/08/23 15:09:25;;;;;;;0.20;0.20;;;27.80;86.50;;;;;;5084240;28;20474;-74
2022/08/23 15:11:51;;;;;;;0.47;0.47;;;27.80;87.20;;;;;;5080988;28;20514;-75
2022/08/23 15:14:19;;;;;;;0.30;0.30;;;27.80;86.80;;;;;;5084656;28;20466;-75
2022/08/23 15:16:46;;;;;;;0.20;0.20;;;27.70;87.90;;;;;;5073088;28;20455;-72
2022/08/23 15:19:13;;;;;;;0.50;0.50;;;27.80;88.20;;;;;;5074376;28;20452;-74
2022/08/23 15:21:40;;;;;;;0.40;0.40;;;27.80;88.80;;;;;;5067966;28;20479;-74
2022/08/23 15:24:07;;;;;;;0.33;0.33;;;27.80;90.00;;;;;;5072041;28;20484;-73
2022/08/23 15:26:35;;;;;;;0.20;0.20;;;27.90;88.80;;;;;;5071666;28;20471;-74
2022/08/23 15:29:03;;;;;;;1.43;0.40;;;27.90;89.30;;;;;;5067191;28;20471;-74
2022/08/23 15:31:31;;;;;;;0.30;0.30;;;27.90;87.80;;;;;;5062804;28;20501;-74
2022/08/23 15:33:58;;;;;;;0.30;0.30;;;27.80;88.30;;;;;;5063810;28;20460;-74
2022/08/23 15:36:25;;;;;;;0.20;0.20;;;27.80;89.70;;;;;;5068127;28;20471;-74
2022/08/23 15:38:51;;;;;;;0.30;0.30;;;27.80;89.30;;;;;;5066041;28;20483;-74
2022/08/23 15:41:20;;;;;;;0.30;0.30;;;27.90;89.70;;;;;;5055428;28;20495;-74
2022/08/23 15:43:47;;;;;;;0.40;0.40;;;27.90;90.50;;;;;;5063705;28;20854;-75
2022/08/23 15:46:18;;;;;;;0.20;0.20;;;27.90;90.60;;;;;;5067155;28;20460;-74
2022/08/23 15:48:49;;;;;;;0.43;0.43;;;28.00;90.60;;;;;;5062231;28;21066;-74
2022/08/23 15:51:18;;;;;;;0.23;0.23;;;28.00;90.50;;;;;;5063300;28;20576;-75
2022/08/23 15:53:45;;;;;;;0.20;0.20;;;28.00;90.90;;;;;;5062906;28;20459;-74
2022/08/23 15:56:15;;;;;;;0.33;0.33;;;28.00;90.40;;;;;;5073531;28;20452;-74
2022/08/23 15:58:42;;;;;;;0.20;0.20;;;28.00;90.00;;;;;;5069984;28;21003;-75
2022/08/23 16:01:10;;;;;;;0.20;0.20;;;28.00;90.30;;;;;;5064479;28;20459;-75
2022/08/23 16:03:38;;;;;;;0.67;0.67;;;28.10;90.70;;;;;;5070746;28;20518;-74
2022/08/23 16:06:06;;;;;;;2.97;0.40;;;28.10;90.20;;;;;;5064984;28;20498;-74
2022/08/23 16:08:37;;;;;;;0.20;0.20;;;28.00;90.60;;;;;;5065645;28;20472;-74
2022/08/23 16:11:07;;;;;;;0.37;0.37;;;27.90;90.10;;;;;;5061617;28;20972;-74
2022/08/23 16:13:34;;;;;;;0.20;0.20;;;27.90;90.30;;;;;;5059015;28;20589;-74
2022/08/23 16:16:02;;;;;;;0.20;0.20;;;27.80;90.20;;;;;;5058630;28;20776;-74
2022/08/23 16:18:29;;;;;;;0.20;0.20;;;27.70;90.40;;;;;;5072007;28;20467;-74
2022/08/23 16:20:55;;;;;;;0.40;0.40;;;27.70;90.90;;;;;;5074450;28;20467;-75
2022/08/23 16:23:25;;;;;;;0.30;0.30;;;27.70;90.40;;;;;;5076506;28;20448;-74
2022/08/23 16:25:51;;;;;;;0.30;0.30;;;27.60;90.80;;;;;;5069802;28;20492;-74
2022/08/23 16:28:18;;;;;;;0.20;0.20;;;27.60;90.30;;;;;;5073057;28;20488;-75
2022/08/23 16:30:45;;;;;;;1.03;0.20;;;27.60;90.00;;;;;;5072108;28;20468;-75
2022/08/23 16:33:12;;;;;;;0.27;0.27;;;27.50;90.20;;;;;;5070487;28;20483;-73
2022/08/23 16:35:38;;;;;;;0.20;0.20;;;27.50;90.80;;;;;;5067122;28;20459;-74
2022/08/23 16:38:05;;;;;;;0.30;0.30;;;27.50;90.20;;;;;;5071553;28;20715;-73
2022/08/23 16:40:33;;;;;;;0.20;0.20;;;27.50;90.10;;;;;;5063982;28;20468;-74
2022/08/23 16:43:00;;;;;;;0.60;0.60;;;27.40;90.20;;;;;;5065681;28;20491;-74
2022/08/23 16:45:27;;;;;;;0.33;0.30;;;27.40;90.50;;;;;;5066842;28;20564;-74
2022/08/23 16:47:54;;;;;;;0.33;0.30;;;27.40;90.30;;;;;;5068182;28;20483;-75
2022/08/23 16:50:20;;;;;;;0.17;0.17;;;27.40;90.20;;;;;;5068455;28;20469;-73
2022/08/23 16:52:47;;;;;;;0.50;0.20;;;27.40;89.80;;;;;;5066135;28;20499;-74
2022/08/23 16:55:14;;;;;;;0.47;0.47;;;27.30;89.60;;;;;;5062053;28;20488;-74
2022/08/23 16:57:42;;;;;;;0.30;0.30;;;27.30;90.10;;;;;;5056512;28;20547;-74
2022/08/23 17:00:11;;;;;;;0.43;0.20;;;27.20;89.50;;;;;;5058354;28;20476;-74
2022/08/23 17:02:39;;;;;;;0.20;0.20;;;27.20;89.20;;;;;;5055800;28;20484;-74
2022/08/23 17:05:10;;;;;;;3.70;0.30;;;27.10;89.10;;;;;;5052107;28;20507;-74
2022/08/23 17:07:38;;;;;;;0.20;0.20;;;27.00;89.00;;;;;;5061672;28;20463;-74
2022/08/23 17:10:06;;;;;;;0.30;0.30;;;27.00;89.10;;;;;;5055907;28;20541;-74